Ressurser
NettlenkerNedenfor følger en lenkesamling med ulike ressurser som er nyttige både for nåværende og kommende piloter.
Antall som skal vises: 
Nr. Nettlenke Treff
1   Link   Airplane Flying Handbook
Bok i PDF versjon som gir en innføring i flyging. Utgitt av FAA.
3083
2   Link   VOR, NDB, HSI og RMI simulator
Side med utallige flash-baserte simulatorer.
3784
3   Link   Pilot's Handbook of Aeronautical Knowledge
FAA lærebok om fly-relaterte temaer.
2505
4   Link   AOPA Air Safety Foundation
Gratis flash-baserte pilot kurs fra AOPA.
2442
5   Link   Pilot Friend
Side med mange nyttige ressurser: vær, flytyper, motortyper, flyplanlegging, flymedisin m.m.
2755
6   Link   Bernoullis prinsipp
Side med animert og fyldig informasjon om Bernoullis prinsipp
2778
7   Link   Seaplane, Skiplane, and Float/Ski Equipped Helicopter Operations Handbook
FAA bok som omhandler ski og sjøflyging.
2423
 
METAR
2018/10/18 08:20 ENCN 180820Z 24003KT CAVOK 08/06 Q1023
TAF
2018/10/18 09:38 TAF ENCN 180800Z 1809/1818 28008KT CAVOK
LN-KFK
Operativ VFR-natt
VFR dag
07:29 - 18:56
Brannvakt
Inaktiv
Banner
Banner
Banner
Banner
Banner